Time;durP1;ratioP1;P1;durP2;ratioP2;P2;SDS_P1;SDS_P2;PMS_P1;PMS_P2;Temp;Humidity;BMP_temperature;BMP_pressure;BME280_temperature;BME280_humidity;BME280_pressure;Samples;Min_cycle;Max_cycle;Signal;HPM_P1;HPM_P2
2023/09/18 00:00:09;;;;;;;96.43;91.30;;;20.30;99.90;;;;;;5054475;28;20036;-70
2023/09/18 00:02:35;;;;;;;84.53;79.93;;;20.40;99.90;;;;;;5052948;28;20041;-71
2023/09/18 00:05:01;;;;;;;94.68;89.38;;;20.50;99.90;;;;;;5053208;28;20048;-70
2023/09/18 00:07:27;;;;;;;93.70;88.63;;;20.40;99.90;;;;;;5053692;28;20040;-70
2023/09/18 00:09:53;;;;;;;89.13;84.28;;;20.40;99.90;;;;;;5054343;28;20020;-70
2023/09/18 00:12:19;;;;;;;90.18;85.22;;;20.40;99.90;;;;;;5053466;28;20040;-70
2023/09/18 00:14:50;;;;;;;72.72;68.47;;;20.50;99.90;;;;;;5053735;28;20045;-70
2023/09/18 00:17:19;;;;;;;94.18;89.18;;;20.50;99.90;;;;;;5051403;28;20060;-70
2023/09/18 00:19:45;;;;;;;87.38;82.63;;;20.50;99.90;;;;;;5054098;28;20032;-71
2023/09/18 00:22:11;;;;;;;86.47;81.57;;;20.50;99.90;;;;;;5053429;28;20033;-70
2023/09/18 00:24:37;;;;;;;66.90;63.20;;;20.50;99.90;;;;;;5053602;28;20025;-68
2023/09/18 00:27:03;;;;;;;61.47;58.00;;;20.50;99.90;;;;;;5053441;28;20036;-70
2023/09/18 00:29:30;;;;;;;65.00;61.47;;;20.50;99.90;;;;;;5052267;28;20029;-70
2023/09/18 00:31:56;;;;;;;62.78;59.13;;;20.40;99.90;;;;;;5052917;28;20376;-70
2023/09/18 00:34:22;;;;;;;87.60;82.95;;;20.40;99.90;;;;;;5053984;28;20040;-70
2023/09/18 00:36:48;;;;;;;90.30;85.50;;;20.30;99.90;;;;;;5053295;28;20396;-70
2023/09/18 00:39:15;;;;;;;86.03;81.53;;;20.20;99.90;;;;;;5053196;28;20021;-70
2023/09/18 00:41:42;;;;;;;60.13;56.85;;;20.20;99.90;;;;;;5053240;28;20040;-70
2023/09/18 00:44:08;;;;;;;48.10;45.22;;;20.10;99.90;;;;;;5053384;28;20017;-70
2023/09/18 00:46:34;;;;;;;45.60;42.88;;;20.10;99.90;;;;;;5052520;28;20029;-70
2023/09/18 00:49:00;;;;;;;54.65;51.50;;;20.00;99.90;;;;;;5052051;28;20032;-70
2023/09/18 00:51:26;;;;;;;72.10;67.38;;;20.00;99.90;;;;;;5051836;28;20036;-73
2023/09/18 00:53:53;;;;;;;84.88;80.15;;;19.90;99.90;;;;;;5051819;28;20021;-73
2023/09/18 00:56:20;;;;;;;64.53;60.83;;;19.90;99.90;;;;;;5035135;28;20051;-73
2023/09/18 00:58:46;;;;;;;70.05;66.15;;;19.90;99.90;;;;;;5051739;28;20037;-73
2023/09/18 01:01:16;;;;;;;63.38;60.03;;;19.70;99.90;;;;;;5052376;28;20045;-72
2023/09/18 01:03:42;;;;;;;59.97;56.33;;;19.80;99.90;;;;;;5051616;28;20415;-73
2023/09/18 01:06:08;;;;;;;54.50;51.42;;;19.80;99.90;;;;;;5052727;28;20048;-72
2023/09/18 01:08:34;;;;;;;59.95;56.47;;;19.80;99.90;;;;;;5052856;28;20406;-72
2023/09/18 01:11:05;;;;;;;62.40;58.83;;;19.80;99.90;;;;;;5052528;28;20033;-72
2023/09/18 01:13:37;;;;;;;51.92;49.15;;;19.80;99.90;;;;;;5052733;28;20040;-73
2023/09/18 01:16:08;;;;;;;53.80;50.80;;;19.90;99.90;;;;;;5050951;28;20041;-72
2023/09/18 01:18:34;;;;;;;62.53;59.00;;;19.90;99.90;;;;;;5051789;28;20029;-72
2023/09/18 01:21:00;;;;;;;57.05;53.83;;;19.90;99.90;;;;;;5052500;28;20387;-73
2023/09/18 01:23:26;;;;;;;59.20;55.90;;;19.90;99.90;;;;;;5052616;28;20037;-72
2023/09/18 01:25:53;;;;;;;59.17;55.85;;;19.90;99.90;;;;;;5052301;28;20380;-72
2023/09/18 01:28:19;;;;;;;56.83;53.47;;;19.90;99.90;;;;;;5052838;28;20037;-73
2023/09/18 01:30:45;;;;;;;66.63;62.90;;;19.90;99.90;;;;;;5051842;28;20032;-73
2023/09/18 01:33:11;;;;;;;79.90;75.30;;;19.80;99.90;;;;;;5052895;28;20052;-72
2023/09/18 01:35:37;;;;;;;77.00;72.93;;;19.80;99.90;;;;;;5052597;28;20423;-73
2023/09/18 01:38:04;;;;;;;77.72;73.55;;;19.80;99.90;;;;;;5033668;28;20021;-73
2023/09/18 01:40:30;;;;;;;72.15;68.35;;;19.80;99.90;;;;;;5033918;28;20044;-73
2023/09/18 01:42:56;;;;;;;69.53;65.38;;;19.70;99.90;;;;;;5051289;28;20029;-73
2023/09/18 01:45:22;;;;;;;67.95;64.03;;;19.70;99.90;;;;;;5050237;28;20479;-72
2023/09/18 01:47:48;;;;;;;63.08;59.58;;;19.70;99.90;;;;;;5052344;28;20032;-72
2023/09/18 01:50:14;;;;;;;62.25;58.67;;;19.70;99.90;;;;;;5051922;28;20650;-73
2023/09/18 01:52:41;;;;;;;65.30;61.70;;;19.60;99.90;;;;;;5051992;28;20032;-72
2023/09/18 01:55:07;;;;;;;58.78;55.28;;;19.60;99.90;;;;;;5052429;28;20044;-73
2023/09/18 01:57:33;;;;;;;66.10;62.50;;;19.60;99.90;;;;;;5051524;28;20526;-73
2023/09/18 02:00:00;;;;;;;56.13;52.90;;;19.60;99.90;;;;;;5052491;28;20056;-69
2023/09/18 02:02:26;;;;;;;59.85;56.53;;;19.60;99.90;;;;;;5051181;28;20048;-70
2023/09/18 02:04:52;;;;;;;69.45;65.32;;;19.60;99.90;;;;;;5051145;28;20034;-70
2023/09/18 02:07:18;;;;;;;69.82;65.72;;;19.60;99.90;;;;;;5050182;28;20502;-70
2023/09/18 02:09:44;;;;;;;69.25;65.30;;;19.60;99.90;;;;;;5052287;28;20029;-70
2023/09/18 02:12:16;;;;;;;57.97;54.75;;;19.60;99.90;;;;;;5051692;28;20032;-70
2023/09/18 02:14:46;;;;;;;67.45;63.45;;;19.70;99.90;;;;;;5051890;28;20395;-70
2023/09/18 02:17:12;;;;;;;57.03;53.67;;;19.60;99.90;;;;;;5050983;28;20052;-70
2023/09/18 02:19:39;;;;;;;62.00;58.30;;;19.60;99.90;;;;;;5050900;28;20029;-70
2023/09/18 02:22:05;;;;;;;57.10;53.53;;;19.60;99.90;;;;;;5051103;28;20040;-70
2023/09/18 02:24:31;;;;;;;60.55;57.33;;;19.70;99.90;;;;;;5051987;28;20471;-69
2023/09/18 02:26:57;;;;;;;54.72;51.55;;;19.70;99.90;;;;;;5051631;28;20033;-70
2023/09/18 02:29:23;;;;;;;59.55;56.08;;;19.70;99.90;;;;;;5052061;28;20033;-69
2023/09/18 02:31:49;;;;;;;63.88;60.25;;;19.70;99.90;;;;;;5051184;28;20037;-70
2023/09/18 02:34:15;;;;;;;67.00;63.30;;;19.60;99.90;;;;;;5051823;28;20044;-70
2023/09/18 02:36:41;;;;;;;70.50;66.28;;;19.60;99.90;;;;;;5045404;28;20041;-70
2023/09/18 02:39:07;;;;;;;72.15;67.90;;;19.60;99.90;;;;;;5031897;28;20025;-69
2023/09/18 02:41:34;;;;;;;79.40;75.10;;;19.60;99.90;;;;;;5043302;28;20033;-70
2023/09/18 02:44:00;;;;;;;68.35;64.15;;;19.60;99.90;;;;;;5051733;28;20029;-69
2023/09/18 02:46:26;;;;;;;73.82;69.60;;;19.60;99.90;;;;;;5050988;28;20033;-69
2023/09/18 02:48:52;;;;;;;68.38;64.32;;;19.50;99.90;;;;;;5052605;28;20037;-70
2023/09/18 02:51:18;;;;;;;75.10;70.35;;;19.50;99.90;;;;;;5054939;28;20040;-70
2023/09/18 02:53:44;;;;;;;70.68;66.45;;;19.50;99.90;;;;;;5055531;28;20029;-69
2023/09/18 02:56:10;;;;;;;74.95;70.50;;;19.50;99.90;;;;;;5054951;28;20467;-70
2023/09/18 02:58:36;;;;;;;69.38;65.55;;;19.50;99.90;;;;;;5055465;28;20032;-69
2023/09/18 03:01:05;;;;;;;71.10;67.00;;;19.50;99.90;;;;;;5053325;28;20037;-69
2023/09/18 03:03:31;;;;;;;59.85;56.25;;;19.50;99.90;;;;;;5055110;28;20048;-70
2023/09/18 03:06:04;;;;;;;64.57;60.78;;;19.50;99.90;;;;;;5054610;28;20042;-70
2023/09/18 03:08:30;;;;;;;63.88;60.25;;;19.40;99.90;;;;;;5055333;28;20024;-70
2023/09/18 03:10:56;;;;;;;63.22;59.60;;;19.40;99.90;;;;;;5054668;28;20044;-70
2023/09/18 03:13:22;;;;;;;63.67;59.83;;;19.40;99.90;;;;;;5055056;28;20391;-70
2023/09/18 03:15:48;;;;;;;67.75;63.58;;;19.40;99.90;;;;;;5054478;28;20051;-70
2023/09/18 03:18:15;;;;;;;74.05;70.00;;;19.40;99.90;;;;;;5055218;28;20036;-70
2023/09/18 03:20:41;;;;;;;73.38;69.18;;;19.40;99.90;;;;;;5054312;28;20032;-70
2023/09/18 03:23:07;;;;;;;73.43;69.18;;;19.40;99.90;;;;;;5055497;28;20033;-70
2023/09/18 03:25:33;;;;;;;75.60;71.15;;;19.40;99.90;;;;;;5053393;28;20394;-70
2023/09/18 03:27:59;;;;;;;77.05;72.25;;;19.40;99.90;;;;;;5055054;28;20029;-70
2023/09/18 03:30:25;;;;;;;76.32;71.75;;;19.40;99.90;;;;;;5054094;28;20025;-70
2023/09/18 03:32:52;;;;;;;78.40;73.93;;;19.40;99.90;;;;;;5055301;28;20060;-70
2023/09/18 03:35:18;;;;;;;75.90;71.43;;;19.40;99.90;;;;;;5054009;28;20037;-70
2023/09/18 03:37:48;;;;;;;72.15;67.60;;;19.50;99.90;;;;;;5054662;28;20068;-71
2023/09/18 03:40:15;;;;;;;71.63;67.32;;;19.50;99.90;;;;;;5054071;28;20044;-70
2023/09/18 03:42:41;;;;;;;84.80;79.75;;;19.50;99.90;;;;;;5053327;28;20044;-70
2023/09/18 03:45:08;;;;;;;69.40;65.43;;;19.50;99.90;;;;;;5054186;28;20029;-70
2023/09/18 03:47:35;;;;;;;70.28;66.25;;;19.50;99.90;;;;;;5049751;28;20052;-70
2023/09/18 03:50:07;;;;;;;76.38;71.55;;;19.40;99.90;;;;;;5052635;28;20493;-70
2023/09/18 03:52:34;;;;;;;86.68;81.50;;;19.50;99.90;;;;;;5054624;28;20040;-70
2023/09/18 03:55:00;;;;;;;82.70;77.65;;;19.50;99.90;;;;;;5054441;28;20040;-70
2023/09/18 03:57:26;;;;;;;85.60;80.43;;;19.50;99.90;;;;;;5053746;28;20037;-70
2023/09/18 03:59:52;;;;;;;89.43;84.15;;;19.50;99.90;;;;;;5054094;28;20036;-70
2023/09/18 04:02:18;;;;;;;89.55;84.25;;;19.50;99.90;;;;;;5053214;28;20049;-70
2023/09/18 04:04:44;;;;;;;95.88;90.35;;;19.50;99.90;;;;;;5054350;28;20419;-70
2023/09/18 04:07:11;;;;;;;80.47;75.63;;;19.40;99.90;;;;;;5053763;28;20037;-70
2023/09/18 04:09:37;;;;;;;77.53;73.25;;;19.40;99.90;;;;;;5054673;28;20041;-70
2023/09/18 04:12:05;;;;;;;77.72;73.22;;;19.40;99.90;;;;;;5053925;28;20048;-70
2023/09/18 04:14:32;;;;;;;74.40;70.10;;;19.40;99.90;;;;;;5054068;28;20045;-70
2023/09/18 04:16:58;;;;;;;73.78;69.50;;;19.40;99.90;;;;;;5052615;28;20063;-70
2023/09/18 04:19:24;;;;;;;66.88;62.63;;;19.40;99.90;;;;;;5053957;28;20029;-70
2023/09/18 04:21:50;;;;;;;69.10;64.97;;;19.40;99.90;;;;;;5053456;28;20033;-70
2023/09/18 04:24:16;;;;;;;69.28;64.95;;;19.40;99.90;;;;;;5053753;28;20029;-70
2023/09/18 04:26:42;;;;;;;71.13;66.93;;;19.30;99.90;;;;;;5053862;28;20056;-70
2023/09/18 04:29:09;;;;;;;68.53;64.30;;;19.40;99.90;;;;;;5053888;28;20033;-70
2023/09/18 04:31:35;;;;;;;70.03;65.88;;;19.30;99.90;;;;;;5052689;28;20052;-70
2023/09/18 04:34:02;;;;;;;71.80;67.55;;;19.30;99.90;;;;;;5054090;28;20044;-70
2023/09/18 04:36:29;;;;;;;72.00;67.38;;;19.40;99.90;;;;;;5049797;28;20455;-70
2023/09/18 04:38:55;;;;;;;75.43;70.78;;;19.30;99.90;;;;;;5033600;28;20046;-70
2023/09/18 04:41:21;;;;;;;76.90;72.00;;;19.30;99.90;;;;;;5043146;28;20048;-70
2023/09/18 04:43:47;;;;;;;74.40;70.18;;;19.20;99.90;;;;;;5053656;28;20029;-70
2023/09/18 04:46:13;;;;;;;71.47;66.97;;;19.20;99.90;;;;;;5052317;28;20044;-70
2023/09/18 04:48:39;;;;;;;72.30;68.05;;;19.20;99.90;;;;;;5053150;28;20033;-70
2023/09/18 04:51:05;;;;;;;72.93;68.82;;;19.20;99.90;;;;;;5051956;28;20044;-70
2023/09/18 04:53:32;;;;;;;71.50;66.63;;;19.20;99.90;;;;;;5053156;28;20044;-70
2023/09/18 04:55:58;;;;;;;71.15;66.60;;;19.20;99.90;;;;;;5051666;28;20037;-72
2023/09/18 04:58:24;;;;;;;69.90;65.65;;;19.20;99.90;;;;;;5051694;28;20029;-70
2023/09/18 05:00:54;;;;;;;70.78;66.43;;;19.30;99.90;;;;;;5051675;28;20472;-70
2023/09/18 05:03:21;;;;;;;67.45;63.55;;;19.30;99.90;;;;;;5053285;28;20033;-70
2023/09/18 05:05:47;;;;;;;75.65;71.05;;;19.30;99.90;;;;;;5052720;28;20577;-70
2023/09/18 05:08:13;;;;;;;85.63;80.35;;;19.40;99.90;;;;;;5052925;28;20029;-70
2023/09/18 05:10:39;;;;;;;87.45;81.72;;;19.30;99.90;;;;;;5052687;28;20037;-70
2023/09/18 05:13:06;;;;;;;87.03;81.53;;;19.40;99.90;;;;;;5052418;28;20032;-70
2023/09/18 05:15:33;;;;;;;84.35;79.28;;;19.40;99.90;;;;;;5051314;28;20049;-70
2023/09/18 05:17:59;;;;;;;91.82;86.20;;;19.40;99.90;;;;;;5052911;28;20064;-70
2023/09/18 05:20:26;;;;;;;82.15;77.35;;;19.40;99.90;;;;;;5052839;28;20486;-70
2023/09/18 05:22:55;;;;;;;80.68;75.90;;;19.40;99.90;;;;;;5051902;28;20036;-70
2023/09/18 05:25:22;;;;;;;73.20;68.40;;;19.40;99.90;;;;;;5052607;28;20021;-70
2023/09/18 05:27:54;;;;;;;76.93;72.05;;;19.30;99.90;;;;;;5052872;28;20025;-70
2023/09/18 05:30:27;;;;;;;69.13;64.68;;;19.20;99.90;;;;;;5049821;28;20033;-70
2023/09/18 05:32:54;;;;;;;69.55;64.82;;;19.20;99.90;;;;;;5052439;28;20049;-73
2023/09/18 05:35:21;;;;;;;64.85;60.42;;;19.20;99.90;;;;;;5052387;28;20033;-72
2023/09/18 05:37:47;;;;;;;62.70;58.53;;;19.20;99.90;;;;;;5052476;28;20041;-73
2023/09/18 05:40:13;;;;;;;65.70;61.03;;;19.30;99.90;;;;;;5052434;28;20479;-72
2023/09/18 05:42:43;;;;;;;65.35;60.88;;;19.30;99.90;;;;;;5052401;28;20032;-73
2023/09/18 05:45:10;;;;;;;60.88;57.05;;;19.30;99.90;;;;;;5051261;28;20037;-72
2023/09/18 05:47:37;;;;;;;58.10;54.30;;;19.40;99.90;;;;;;5052241;28;20044;-73
2023/09/18 05:50:07;;;;;;;60.35;56.58;;;19.40;99.90;;;;;;5052638;28;20056;-72
2023/09/18 05:52:33;;;;;;;64.95;60.95;;;19.50;99.90;;;;;;5053119;28;20040;-73
2023/09/18 05:55:00;;;;;;;67.03;62.80;;;19.50;99.90;;;;;;5052521;28;20041;-72
2023/09/18 05:57:27;;;;;;;63.30;59.30;;;19.60;99.90;;;;;;5052058;28;20050;-72
2023/09/18 05:59:56;;;;;;;63.95;59.83;;;19.60;99.90;;;;;;5052016;28;20052;-72
2023/09/18 06:02:23;;;;;;;61.15;57.33;;;19.60;99.90;;;;;;5051711;28;20033;-73
2023/09/18 06:04:49;;;;;;;65.82;61.53;;;19.60;99.90;;;;;;5052340;28;20029;-72
2023/09/18 06:07:15;;;;;;;74.53;69.72;;;19.60;99.90;;;;;;5051957;28;20025;-72
2023/09/18 06:09:41;;;;;;;83.68;78.75;;;19.70;99.90;;;;;;5052275;28;20037;-72
2023/09/18 06:12:09;;;;;;;88.50;83.28;;;19.60;99.90;;;;;;5051932;28;20391;-73
2023/09/18 06:14:37;;;;;;;82.43;77.10;;;19.60;99.90;;;;;;5051703;28;20048;-71
2023/09/18 06:17:04;;;;;;;84.50;79.03;;;19.60;99.90;;;;;;5051474;28;20045;-72
2023/09/18 06:19:30;;;;;;;78.40;73.38;;;19.60;99.90;;;;;;5052087;28;20471;-73
2023/09/18 06:21:56;;;;;;;75.03;69.88;;;19.60;99.90;;;;;;5052092;28;20037;-72
2023/09/18 06:24:22;;;;;;;75.45;70.95;;;19.60;99.90;;;;;;5055886;28;20024;-74
2023/09/18 06:26:48;;;;;;;73.95;69.20;;;19.50;99.90;;;;;;5056097;28;20036;-73
2023/09/18 06:29:14;;;;;;;75.45;70.53;;;19.50;99.90;;;;;;5055602;28;20040;-71
2023/09/18 06:31:40;;;;;;;71.13;66.78;;;19.50;99.90;;;;;;5055464;28;20484;-73
2023/09/18 06:34:07;;;;;;;75.78;71.10;;;19.50;99.90;;;;;;5056010;28;20029;-73
2023/09/18 06:36:33;;;;;;;68.72;64.18;;;19.50;99.90;;;;;;5055818;28;20048;-72
2023/09/18 06:38:59;;;;;;;62.67;58.70;;;19.50;99.90;;;;;;5055802;28;20036;-72
2023/09/18 06:41:25;;;;;;;65.80;61.75;;;19.50;99.90;;;;;;5055697;28;20017;-73
2023/09/18 06:43:52;;;;;;;60.58;56.47;;;19.50;99.90;;;;;;5055543;28;20036;-73
2023/09/18 06:46:18;;;;;;;63.65;59.33;;;19.50;99.90;;;;;;5055481;28;20056;-70
2023/09/18 06:48:49;;;;;;;62.78;58.50;;;19.50;99.90;;;;;;5055571;28;20025;-70
2023/09/18 06:51:15;;;;;;;64.10;59.65;;;19.60;99.90;;;;;;5055584;28;20037;-70
2023/09/18 06:53:43;;;;;;;65.63;61.28;;;19.60;99.90;;;;;;5056007;28;20037;-70
2023/09/18 06:56:09;;;;;;;70.68;66.07;;;19.60;99.90;;;;;;5055095;28;20029;-70
2023/09/18 06:58:35;;;;;;;76.50;71.80;;;19.60;99.90;;;;;;5055369;28;20059;-70
2023/09/18 07:01:04;;;;;;;73.55;68.85;;;19.70;99.90;;;;;;5055156;28;20025;-71
2023/09/18 07:03:32;;;;;;;62.35;57.95;;;19.70;99.90;;;;;;5055253;28;20032;-70
2023/09/18 07:05:58;;;;;;;83.90;78.68;;;19.80;99.90;;;;;;5055687;28;20037;-71
2023/09/18 07:08:24;;;;;;;86.57;81.53;;;20.00;99.90;;;;;;5055298;28;20033;-70
2023/09/18 07:10:50;;;;;;;87.47;82.47;;;20.30;99.90;;;;;;5054923;28;20025;-70
2023/09/18 07:13:16;;;;;;;87.40;82.38;;;20.50;99.90;;;;;;5055110;28;20044;-70
2023/09/18 07:15:43;;;;;;;67.93;64.15;;;20.70;99.90;;;;;;5055159;28;20407;-70
2023/09/18 07:18:13;;;;;;;54.70;51.22;;;20.90;99.90;;;;;;5055106;28;20037;-70
2023/09/18 07:20:40;;;;;;;;;;;21.10;99.90;;;;;;5055550;28;20040;-70
2023/09/18 07:23:06;;;;;;;59.05;55.75;;;21.20;99.90;;;;;;5055162;28;19920;-70
2023/09/18 07:25:32;;;;;;;112.28;106.47;;;21.40;99.90;;;;;;5054644;28;20029;-70
2023/09/18 07:27:58;;;;;;;67.63;64.00;;;21.50;99.90;;;;;;5055050;28;20032;-70
2023/09/18 07:30:26;;;;;;;75.63;71.43;;;21.60;99.90;;;;;;5037007;28;20387;-70
2023/09/18 07:32:58;;;;;;;168.23;159.60;;;21.70;99.90;;;;;;5054698;28;20372;-71
2023/09/18 07:35:25;;;;;;;100.55;95.35;;;21.60;99.90;;;;;;5052265;28;20041;-70
2023/09/18 07:37:51;;;;;;;89.07;84.32;;;21.50;99.90;;;;;;5053257;28;20049;-71
2023/09/18 07:40:17;;;;;;;68.72;64.85;;;21.40;99.90;;;;;;5054272;28;20039;-70
2023/09/18 07:42:44;;;;;;;79.22;74.75;;;21.30;99.90;;;;;;5054766;28;20025;-70
2023/09/18 07:45:10;;;;;;;115.40;109.30;;;21.20;99.90;;;;;;5054179;28;20525;-70
2023/09/18 07:47:36;;;;;;;83.75;79.22;;;21.20;99.90;;;;;;5054445;28;20054;-70
2023/09/18 07:50:03;;;;;;;81.18;76.72;;;21.20;99.90;;;;;;5054338;28;20056;-70
2023/09/18 07:52:30;;;;;;;72.72;68.63;;;21.20;99.90;;;;;;5054604;28;20037;-70
2023/09/18 07:54:57;;;;;;;79.18;74.80;;;21.10;99.90;;;;;;5054074;28;20045;-72
2023/09/18 07:57:24;;;;;;;88.22;83.50;;;21.00;99.90;;;;;;5054208;28;20484;-72
2023/09/18 07:59:51;;;;;;;107.65;101.88;;;21.10;99.90;;;;;;5055076;28;20040;-72
2023/09/18 08:02:21;;;;;;;113.88;107.85;;;21.20;99.90;;;;;;5054095;28;20037;-72
2023/09/18 08:04:47;;;;;;;60.35;57.03;;;21.20;99.90;;;;;;5054241;28;20048;-72
2023/09/18 08:07:13;;;;;;;52.33;49.33;;;21.30;99.90;;;;;;5053984;28;20056;-72
2023/09/18 08:09:39;;;;;;;110.38;104.80;;;21.50;99.90;;;;;;5053788;28;20459;-72
2023/09/18 08:12:07;;;;;;;158.50;150.50;;;21.80;99.90;;;;;;5054350;28;20044;-72
2023/09/18 08:14:36;;;;;;;149.52;141.88;;;21.90;99.90;;;;;;5054224;28;20057;-72
2023/09/18 08:17:04;;;;;;;173.85;164.88;;;22.10;99.90;;;;;;5053357;28;20045;-72
2023/09/18 08:19:32;;;;;;;182.45;173.25;;;22.20;99.90;;;;;;5053800;28;20045;-72
2023/09/18 08:22:01;;;;;;;192.88;183.20;;;22.30;99.90;;;;;;5054480;28;20021;-72
2023/09/18 08:24:27;;;;;;;170.95;162.38;;;22.40;99.90;;;;;;5053841;28;20025;-72
2023/09/18 08:26:54;;;;;;;139.27;131.98;;;22.40;99.90;;;;;;5053618;28;20044;-72
2023/09/18 08:29:20;;;;;;;137.77;130.60;;;22.40;99.90;;;;;;5054081;28;20044;-73
2023/09/18 08:31:46;;;;;;;168.07;159.48;;;22.30;99.90;;;;;;5053442;28;20041;-72
2023/09/18 08:34:12;;;;;;;155.85;148.05;;;22.30;99.90;;;;;;5053808;28;20036;-72
2023/09/18 08:36:38;;;;;;;138.88;131.82;;;22.30;99.90;;;;;;5053394;28;20033;-71
2023/09/18 08:39:07;;;;;;;127.25;120.93;;;22.30;99.90;;;;;;5053299;28;20029;-72
2023/09/18 08:41:34;;;;;;;122.47;116.07;;;22.20;99.90;;;;;;5052663;28;20471;-72
2023/09/18 08:44:03;;;;;;;128.77;122.25;;;22.30;99.90;;;;;;5052380;28;20025;-72
2023/09/18 08:46:29;;;;;;;128.82;122.15;;;22.30;99.90;;;;;;5050722;28;20033;-72
2023/09/18 08:48:56;;;;;;;122.47;116.00;;;22.20;99.90;;;;;;5053918;28;20052;-72
2023/09/18 08:51:23;;;;;;;127.43;120.68;;;22.20;99.90;;;;;;5053515;28;20025;-73
2023/09/18 08:53:49;;;;;;;127.25;120.55;;;22.20;99.90;;;;;;5053208;28;20032;-72
2023/09/18 08:56:15;;;;;;;146.80;139.30;;;22.40;99.90;;;;;;5052411;28;20051;-72
2023/09/18 08:58:42;;;;;;;159.10;150.85;;;22.50;99.90;;;;;;5035524;28;20037;-72
2023/09/18 09:01:09;;;;;;;173.93;165.02;;;22.50;99.90;;;;;;5051395;28;20033;-73
2023/09/18 09:03:37;;;;;;;211.48;200.88;;;22.60;99.90;;;;;;5052959;28;20028;-70
2023/09/18 09:06:03;;;;;;;210.48;199.85;;;22.80;99.90;;;;;;5053099;28;20459;-70
2023/09/18 09:08:30;;;;;;;257.08;243.98;;;23.00;99.90;;;;;;5031470;28;20045;-70
2023/09/18 09:10:58;;;;;;;313.67;297.98;;;23.20;99.90;;;;;;5032980;28;20040;-70
2023/09/18 09:13:28;;;;;;;318.90;302.95;;;23.50;99.90;;;;;;5032135;28;20037;-70
2023/09/18 09:15:57;;;;;;;340.05;322.80;;;23.60;99.90;;;;;;5031379;28;20037;-70
2023/09/18 09:18:27;;;;;;;323.17;306.97;;;23.80;99.90;;;;;;5033108;28;20033;-70
2023/09/18 09:20:58;;;;;;;388.23;367.95;;;23.90;99.90;;;;;;5032807;28;20364;-70
2023/09/18 09:23:24;;;;;;;;;;;24.00;99.90;;;;;;5033259;28;20045;-70
2023/09/18 09:25:50;;;;;;;454.15;429.90;;;24.00;99.90;;;;;;5032763;28;20290;-70
2023/09/18 09:28:25;;;;;;;452.60;428.52;;;23.90;99.90;;;;;;5032807;28;20491;-70
2023/09/18 09:30:52;;;;;;;475.77;449.60;;;23.80;99.90;;;;;;5030929;28;20045;-70
2023/09/18 09:33:18;;;;;;;418.13;396.10;;;23.90;99.90;;;;;;5015160;28;20032;-70
2023/09/18 09:35:44;;;;;;;387.95;368.08;;;24.00;99.90;;;;;;5032699;28;20472;-70
2023/09/18 09:38:12;;;;;;;388.52;368.67;;;24.00;99.90;;;;;;5048999;28;20045;-71
2023/09/18 09:40:40;;;;;;;425.17;402.63;;;24.20;99.90;;;;;;5052444;28;20029;-70
2023/09/18 09:43:08;;;;;;;430.02;407.35;;;24.30;99.90;;;;;;5051022;28;20041;-70
2023/09/18 09:45:38;;;;;;;503.02;475.15;;;24.50;99.90;;;;;;5051755;28;20044;-70
2023/09/18 09:48:05;;;;;;;586.80;552.05;;;24.60;99.90;;;;;;5052704;28;20407;-70
2023/09/18 09:50:32;;;;;;;531.00;501.10;;;24.70;99.90;;;;;;5052295;28;20052;-70
2023/09/18 09:52:58;;;;;;;428.52;406.23;;;24.80;99.90;;;;;;5050998;28;20040;-71
2023/09/18 09:55:29;;;;;;;521.42;492.15;;;24.80;99.90;;;;;;5051155;28;20383;-70
2023/09/18 09:58:05;;;;;;;476.08;450.02;;;24.80;99.90;;;;;;5052066;28;20053;-70
2023/09/18 10:00:45;;;;;;;451.42;427.50;;;24.80;99.90;;;;;;5051748;28;20040;-70
2023/09/18 10:03:13;;;;;;;516.42;487.58;;;24.90;99.90;;;;;;5052307;28;20468;-73
2023/09/18 10:05:41;;;;;;;471.55;446.17;;;24.90;99.90;;;;;;5051715;28;20029;-70
2023/09/18 10:08:10;;;;;;;566.03;532.78;;;24.90;99.90;;;;;;5052443;28;20052;-70
2023/09/18 10:10:39;;;;;;;513.08;484.73;;;24.90;99.90;;;;;;5051238;28;20522;-70
2023/09/18 10:13:27;;;;;;;458.08;433.20;;;24.90;99.90;;;;;;5050939;28;20033;-70
2023/09/18 10:15:53;;;;;;;524.38;494.77;;;25.00;99.90;;;;;;5034349;28;20419;-71
2023/09/18 10:18:26;;;;;;;491.33;464.30;;;24.90;99.90;;;;;;5033742;28;20487;-71
2023/09/18 10:21:03;;;;;;;549.47;517.92;;;24.90;99.90;;;;;;5051715;28;20021;-72
2023/09/18 10:23:39;;;;;;;521.45;492.17;;;24.80;99.90;;;;;;5035069;28;20033;-72
2023/09/18 10:26:05;;;;;;;531.88;501.60;;;24.80;99.90;;;;;;5052651;28;20045;-70
2023/09/18 10:28:31;;;;;;;379.45;360.08;;;24.90;99.90;;;;;;5050726;28;20387;-70
2023/09/18 10:30:58;;;;;;;295.33;280.70;;;25.00;99.90;;;;;;5050131;28;20033;-70
2023/09/18 10:33:25;;;;;;;313.60;297.77;;;25.20;99.90;;;;;;5033560;28;20488;-70
2023/09/18 10:35:52;;;;;;;348.08;330.38;;;25.30;99.90;;;;;;5050781;28;20045;-73
2023/09/18 10:38:18;;;;;;;299.67;284.83;;;25.40;99.90;;;;;;5034076;28;20040;-72
2023/09/18 10:40:44;;;;;;;345.25;327.65;;;25.50;99.90;;;;;;5050827;28;20025;-73
2023/09/18 10:43:10;;;;;;;338.67;321.58;;;25.50;99.90;;;;;;5033888;28;20051;-73
2023/09/18 10:45:36;;;;;;;338.40;321.40;;;25.50;99.90;;;;;;5050344;28;20033;-73
2023/09/18 10:48:03;;;;;;;398.75;377.63;;;25.40;99.90;;;;;;5050740;28;20021;-73
2023/09/18 10:50:29;;;;;;;354.17;336.27;;;25.10;99.90;;;;;;5050357;28;20060;-73
2023/09/18 10:52:59;;;;;;;280.15;266.17;;;24.90;99.90;;;;;;5051858;28;20360;-73
2023/09/18 10:55:26;;;;;;;341.60;324.27;;;24.70;99.90;;;;;;5050633;28;20033;-73
2023/09/18 10:57:56;;;;;;;362.85;344.42;;;24.60;99.90;;;;;;5050471;28;20376;-73
2023/09/18 11:00:25;;;;;;;349.08;331.58;;;24.50;99.90;;;;;;5051748;28;20041;-73
2023/09/18 11:02:51;;;;;;;353.27;335.45;;;24.40;99.90;;;;;;5051537;28;20044;-73
2023/09/18 11:05:32;;;;;;;360.63;342.02;;;24.30;99.90;;;;;;5051549;28;20036;-73
2023/09/18 11:08:27;;;;;;;367.00;347.95;;;24.30;99.90;;;;;;5051543;28;20033;-73
2023/09/18 11:11:14;;;;;;;349.15;331.58;;;24.10;99.90;;;;;;5054110;28;20021;-73
2023/09/18 11:13:41;;;;;;;402.70;382.02;;;24.00;99.90;;;;;;5055195;28;20048;-73
2023/09/18 11:16:26;;;;;;;390.83;370.85;;;24.00;99.90;;;;;;5054925;28;20029;-74
2023/09/18 11:18:59;;;;;;;415.42;394.35;;;23.90;99.90;;;;;;5054870;28;20044;-73
2023/09/18 11:21:29;;;;;;;492.38;466.25;;;23.80;99.90;;;;;;5054987;28;20395;-73
2023/09/18 11:24:05;;;;;;;460.38;435.80;;;23.60;99.90;;;;;;5055100;28;20025;-72
2023/09/18 11:26:35;;;;;;;436.73;414.00;;;23.50;99.90;;;;;;5055105;28;20360;-73
2023/09/18 11:29:05;;;;;;;424.70;402.58;;;23.40;99.90;;;;;;5055085;28;20037;-72
2023/09/18 11:31:54;;;;;;;426.00;403.50;;;23.30;99.90;;;;;;5054323;28;20037;-73
2023/09/18 11:34:22;;;;;;;384.35;364.20;;;23.30;99.90;;;;;;5054841;28;20033;-72
2023/09/18 11:36:48;;;;;;;361.15;342.92;;;23.20;99.90;;;;;;5054913;28;20037;-73
2023/09/18 11:39:36;;;;;;;335.88;319.05;;;23.20;99.90;;;;;;5054507;28;20049;-72
2023/09/18 11:42:09;;;;;;;272.75;259.33;;;23.00;99.90;;;;;;5053584;28;20024;-73
2023/09/18 11:44:36;;;;;;;233.82;222.40;;;22.90;99.90;;;;;;5054405;28;20048;-72
2023/09/18 11:47:04;;;;;;;275.23;261.52;;;22.80;99.90;;;;;;5053408;28;20033;-72
2023/09/18 11:49:31;;;;;;;211.20;200.68;;;22.60;99.90;;;;;;5054834;28;20041;-73
2023/09/18 11:51:58;;;;;;;290.08;275.35;;;22.70;99.90;;;;;;5052863;28;20043;-72
2023/09/18 11:54:24;;;;;;;299.67;284.70;;;22.80;99.90;;;;;;5054639;28;20025;-72
2023/09/18 11:56:50;;;;;;;365.52;346.40;;;22.90;99.90;;;;;;5052890;28;20414;-72
2023/09/18 11:59:19;;;;;;;384.30;364.23;;;23.00;99.90;;;;;;5054474;28;20475;-72
2023/09/18 12:01:53;;;;;;;390.42;370.52;;;23.10;99.90;;;;;;5053505;28;20036;-72
2023/09/18 12:04:26;;;;;;;384.50;364.50;;;23.20;99.90;;;;;;5054350;28;20029;-72
2023/09/18 12:06:53;;;;;;;406.08;384.77;;;23.30;99.90;;;;;;5052999;28;20028;-72
2023/09/18 12:09:19;;;;;;;398.95;378.20;;;23.40;99.90;;;;;;5054421;28;20037;-72
2023/09/18 12:11:46;;;;;;;428.25;406.15;;;23.50;99.90;;;;;;5052767;28;20056;-72
2023/09/18 12:14:14;;;;;;;439.20;416.42;;;23.70;99.90;;;;;;5052912;28;20045;-72
2023/09/18 12:16:40;;;;;;;469.65;444.60;;;23.70;99.90;;;;;;5053252;28;20029;-72
2023/09/18 12:19:06;;;;;;;495.23;468.25;;;23.80;99.90;;;;;;5054045;28;20037;-73
2023/09/18 12:21:33;;;;;;;531.15;501.58;;;23.80;99.90;;;;;;5053632;28;20474;-72